AF-0002 weather

Dehdadi Airport
Balkh Province, Afghanistan

Public forecast

Using degrees Celsius for public forecast. Weather courtesy of forecast.io.

METAR (pilot weather report)

Closest report is Mazar I Sharif Airport, 9.3 nm (17.2 km) ENE. Retrieved 2019/08/21 14:50 UTC (46 minutes ago):

OAMS 211450Z 21005KT 9999 SKC 32/02 Q1008 BLU+BLU+

TAF (pilot weather forecast)

Closest forecast is Mazar I Sharif Airport, 9.3 nm (17.2 km) ENE. Retrieved 2019/08/21 12:05 UTC (4 hours ago):

TAF OAMS 211105Z 2112/2212 33010KT 9999 NSW SKC BECMG 2113/2115 18010KT 9999 NSW SKC BECMG 2201/2203 30006KT 9999 NSW SKC